Time;durP1;ratioP1;P1;durP2;ratioP2;P2;SDS_P1;SDS_P2;PMS_P1;PMS_P2;Temp;Humidity;BMP_temperature;BMP_pressure;BME280_temperature;BME280_humidity;BME280_pressure;Samples;Min_cycle;Max_cycle;Signal;HPM_P1;HPM_P2
2023/03/31 00:01:09;;;;;;;36.25;29.20;;;25.90;99.90;;;;;;5015110;28;20026;-67
2023/03/31 00:03:37;;;;;;;36.67;25.48;;;25.90;99.90;;;;;;5014963;28;20022;-67
2023/03/31 00:06:04;;;;;;;27.35;23.02;;;26.00;99.90;;;;;;5014816;28;20029;-66
2023/03/31 00:08:34;;;;;;;29.90;21.73;;;26.00;99.90;;;;;;5014753;28;20049;-67
2023/03/31 00:11:02;;;;;;;23.73;20.00;;;26.00;99.90;;;;;;5014816;28;20032;-67
2023/03/31 00:13:30;;;;;;;30.92;20.27;;;26.00;99.90;;;;;;5014808;28;20029;-67
2023/03/31 00:16:00;;;;;;;25.73;20.67;;;26.10;99.90;;;;;;5014694;28;20501;-68
2023/03/31 00:21:23;;;;;;;22.23;19.83;;;26.10;99.90;;;;;;5014919;28;20118;-68
2023/03/31 00:24:00;;;;;;;26.35;19.90;;;26.10;99.90;;;;;;5014295;28;20029;-67
2023/03/31 00:26:28;;;;;;;25.65;20.98;;;26.10;99.90;;;;;;5014688;28;20070;-67
2023/03/31 00:28:55;;;;;;;26.52;20.67;;;26.10;99.90;;;;;;5014237;28;20022;-67
2023/03/31 00:31:22;;;;;;;30.95;22.33;;;26.20;99.90;;;;;;4994843;28;20029;-68
2023/03/31 00:33:50;;;;;;;25.77;21.58;;;26.10;99.90;;;;;;4994955;28;20493;-68
2023/03/31 00:36:46;;;;;;;25.42;21.27;;;26.10;99.90;;;;;;5002107;28;20026;-67
2023/03/31 00:39:08;;;;;;;26.45;21.70;;;26.10;99.90;;;;;;5013309;28;20041;-69
2023/03/31 00:41:36;;;;;;;23.42;20.02;;;26.20;99.90;;;;;;5014298;28;20026;-68
2023/03/31 00:44:07;;;;;;;27.70;22.45;;;26.30;99.90;;;;;;5014117;28;20073;-69
2023/03/31 00:47:01;;;;;;;25.50;22.65;;;26.30;99.90;;;;;;5014128;28;20030;-67
2023/03/31 00:49:29;;;;;;;26.48;20.83;;;26.40;99.90;;;;;;4991121;28;20033;-68
2023/03/31 00:52:06;;;;;;;29.52;23.15;;;26.40;99.90;;;;;;5010601;28;20387;-68
2023/03/31 00:54:35;;;;;;;27.13;23.65;;;26.40;99.90;;;;;;5014125;28;20091;-68
2023/03/31 00:57:05;;;;;;;34.40;28.48;;;26.50;99.90;;;;;;5013867;28;20077;-68
2023/03/31 00:59:37;;;;;;;30.92;26.90;;;26.50;99.90;;;;;;5013897;28;20025;-68
2023/03/31 01:02:05;;;;;;;36.55;30.10;;;26.50;99.90;;;;;;5013928;28;20033;-68
2023/03/31 01:04:35;;;;;;;34.25;28.52;;;26.60;99.90;;;;;;5013913;28;20022;-69
2023/03/31 01:07:17;;;;;;;37.47;31.63;;;26.60;99.90;;;;;;5013625;28;20080;-68
2023/03/31 01:09:47;;;;;;;37.87;33.40;;;26.70;99.90;;;;;;5013911;28;20116;-68
2023/03/31 01:12:18;;;;;;;38.58;31.42;;;26.80;99.90;;;;;;5013686;28;20017;-67
2023/03/31 01:14:44;;;;;;;39.05;27.30;;;26.70;99.90;;;;;;5013740;28;20054;-68
2023/03/31 01:17:17;;;;;;;33.38;28.10;;;26.70;99.90;;;;;;5006271;28;20475;-68
2023/03/31 01:20:24;;;;;;;28.50;25.00;;;26.80;99.90;;;;;;5002927;28;20029;-68
2023/03/31 01:23:11;;;;;;;24.30;21.15;;;26.90;99.90;;;;;;5008697;28;20420;-68
2023/03/31 01:25:49;;;;;;;25.33;19.95;;;27.00;99.90;;;;;;4981046;28;20041;-68
2023/03/31 01:28:19;;;;;;;20.08;16.27;;;27.00;99.90;;;;;;4994076;28;20514;-68
2023/03/31 01:30:45;;;;;;;22.85;16.65;;;27.10;99.90;;;;;;4994021;28;20439;-67
2023/03/31 01:33:14;;;;;;;19.75;13.43;;;27.10;99.90;;;;;;4993745;28;20029;-68
2023/03/31 01:35:53;;;;;;;14.20;11.98;;;27.20;99.90;;;;;;4994043;28;20050;-68
2023/03/31 01:38:48;;;;;;;18.17;13.60;;;27.20;99.90;;;;;;4993810;28;20030;-67
2023/03/31 01:41:22;;;;;;;18.77;13.15;;;27.30;99.90;;;;;;4994124;28;20440;-66
2023/03/31 01:44:00;;;;;;;15.30;11.30;;;27.20;99.90;;;;;;4993939;28;20094;-67
2023/03/31 01:46:42;;;;;;;16.10;11.88;;;27.20;99.90;;;;;;4993868;28;20494;-68
2023/03/31 01:49:18;;;;;;;13.73;10.57;;;27.30;99.90;;;;;;4994313;28;20089;-67
2023/03/31 01:51:56;;;;;;;14.60;12.13;;;27.30;99.90;;;;;;4997805;28;20390;-69
2023/03/31 01:54:32;;;;;;;18.55;13.90;;;27.40;99.90;;;;;;4997654;28;20023;-69
2023/03/31 01:57:05;;;;;;;423.27;379.48;;;27.40;99.90;;;;;;4997575;28;20100;-68
2023/03/31 01:59:42;;;;;;;14.48;12.93;;;27.40;99.90;;;;;;4997388;28;20019;-68
2023/03/31 02:02:17;;;;;;;20.90;15.52;;;27.50;99.90;;;;;;4997640;28;20480;-68
2023/03/31 02:05:07;;;;;;;28.83;20.25;;;27.50;99.90;;;;;;4997500;28;20365;-67
2023/03/31 02:07:50;;;;;;;16.80;14.38;;;27.50;99.90;;;;;;4994249;28;20100;-68
2023/03/31 02:10:18;;;;;;;16.13;14.15;;;27.50;99.90;;;;;;4997449;28;20057;-67
2023/03/31 02:12:45;;;;;;;17.05;14.20;;;27.60;99.90;;;;;;4997514;28;20030;-67
2023/03/31 02:15:18;;;;;;;20.30;17.10;;;27.60;99.90;;;;;;4997444;28;20026;-67
2023/03/31 02:17:51;;;;;;;25.67;19.63;;;27.60;99.90;;;;;;4997448;28;20472;-68
2023/03/31 02:20:20;;;;;;;21.83;18.58;;;27.70;99.90;;;;;;4997263;28;20034;-68
2023/03/31 02:22:52;;;;;;;21.80;18.52;;;27.70;99.90;;;;;;4997222;28;20382;-69
2023/03/31 02:25:24;;;;;;;26.00;20.23;;;27.70;99.90;;;;;;4997094;28;20467;-68
2023/03/31 02:28:02;;;;;;;30.42;23.35;;;27.80;99.90;;;;;;4997106;28;20545;-68
2023/03/31 02:30:53;;;;;;;41.03;29.98;;;27.80;99.90;;;;;;4997120;28;20090;-68
2023/03/31 02:33:20;;;;;;;36.45;28.15;;;27.80;99.90;;;;;;4994787;28;20092;-68
2023/03/31 02:35:46;;;;;;;37.97;32.22;;;27.80;99.90;;;;;;4996908;28;20377;-68
2023/03/31 02:38:13;;;;;;;34.35;30.20;;;27.80;99.90;;;;;;4997023;28;20022;-68
2023/03/31 02:40:40;;;;;;;29.13;25.73;;;27.80;99.90;;;;;;4996843;28;20022;-68
2023/03/31 02:43:06;;;;;;;33.90;26.02;;;27.80;99.90;;;;;;4996922;28;20033;-68
2023/03/31 02:45:43;;;;;;;34.53;26.75;;;27.80;99.90;;;;;;4996736;28;20464;-68
2023/03/31 02:48:17;;;;;;;37.35;27.92;;;27.90;99.90;;;;;;4996655;28;20038;-68
2023/03/31 02:50:58;;;;;;;43.20;33.22;;;27.90;99.90;;;;;;4996762;28;20141;-68
2023/03/31 02:53:34;;;;;;;35.50;30.35;;;28.00;99.90;;;;;;4996468;28;20018;-68
2023/03/31 02:56:08;;;;;;;38.08;30.38;;;28.00;99.90;;;;;;4996666;28;20037;-68
2023/03/31 02:58:54;;;;;;;35.92;27.58;;;28.10;99.90;;;;;;4996371;28;20053;-68
2023/03/31 03:01:22;;;;;;;33.40;26.10;;;28.20;99.90;;;;;;4995829;28;20098;-68
2023/03/31 03:03:53;;;;;;;31.80;24.45;;;28.30;99.90;;;;;;4996418;28;20053;-68
2023/03/31 03:06:36;;;;;;;26.20;21.25;;;28.30;99.90;;;;;;4996447;28;20026;-68
2023/03/31 03:09:17;;;;;;;32.55;23.80;;;28.30;99.90;;;;;;4996098;28;20411;-68
2023/03/31 03:11:59;;;;;;;31.10;23.08;;;28.30;99.90;;;;;;4996310;28;20472;-68
2023/03/31 03:14:38;;;;;;;33.40;22.77;;;28.40;99.90;;;;;;4996032;28;20080;-68
2023/03/31 03:17:17;;;;;;;24.50;20.10;;;28.40;99.90;;;;;;4999188;28;20023;-68
2023/03/31 03:19:50;;;;;;;26.23;22.70;;;28.40;99.90;;;;;;4996099;28;20018;-68
2023/03/31 03:22:16;;;;;;;29.33;23.63;;;28.40;99.90;;;;;;5000092;28;20018;-68
2023/03/31 03:24:43;;;;;;;27.15;23.35;;;28.50;99.90;;;;;;5015559;28;20392;-68
2023/03/31 03:27:09;;;;;;;29.98;22.35;;;28.50;99.90;;;;;;5015742;28;20402;-69
2023/03/31 03:29:36;;;;;;;25.92;21.38;;;28.60;99.90;;;;;;5015682;28;20025;-68
2023/03/31 03:32:02;;;;;;;26.13;20.65;;;28.70;99.90;;;;;;5015598;28;20387;-68
2023/03/31 03:34:29;;;;;;;29.83;23.10;;;28.80;99.90;;;;;;5012787;28;20521;-67
2023/03/31 03:36:56;;;;;;;34.40;25.20;;;28.80;99.90;;;;;;5010111;28;20034;-72
2023/03/31 03:39:22;;;;;;;32.20;24.67;;;29.00;99.90;;;;;;5004922;28;20015;-68
2023/03/31 03:41:49;;;;;;;27.15;24.23;;;29.00;99.90;;;;;;5006409;28;20018;-68
2023/03/31 03:44:15;;;;;;;38.65;33.00;;;29.00;99.90;;;;;;5006444;28;20395;-68
2023/03/31 03:46:42;;;;;;;31.30;27.17;;;29.10;99.90;;;;;;5004707;28;20026;-69
2023/03/31 03:49:09;;;;;;;33.45;26.95;;;29.30;99.90;;;;;;5006099;28;20022;-69
2023/03/31 03:51:35;;;;;;;28.73;24.33;;;29.40;99.90;;;;;;5006258;28;20068;-69
2023/03/31 03:54:02;;;;;;;35.13;26.55;;;29.40;99.90;;;;;;5004489;28;20179;-69
2023/03/31 03:56:28;;;;;;;33.47;28.25;;;29.40;99.90;;;;;;5006910;28;20018;-69
2023/03/31 03:58:55;;;;;;;34.30;28.50;;;29.50;99.90;;;;;;5005272;28;20018;-68
2023/03/31 04:01:21;;;;;;;31.33;27.25;;;29.50;99.90;;;;;;5006290;28;20180;-68
2023/03/31 04:03:48;;;;;;;28.27;24.80;;;29.60;99.90;;;;;;5004387;28;20025;-69
2023/03/31 04:06:14;;;;;;;33.15;24.27;;;29.60;99.90;;;;;;5005369;28;20029;-67
2023/03/31 04:08:41;;;;;;;27.75;24.85;;;29.70;99.90;;;;;;5005964;28;20061;-69
2023/03/31 04:11:17;;;;;;;33.13;27.27;;;29.70;99.90;;;;;;5005765;28;20038;-69
2023/03/31 04:13:45;;;;;;;30.33;27.13;;;29.80;99.90;;;;;;5008820;28;20034;-68
2023/03/31 04:16:12;;;;;;;29.25;26.23;;;29.80;99.90;;;;;;5004800;28;20033;-70
2023/03/31 04:18:41;;;;;;;29.33;25.88;;;29.80;99.90;;;;;;5004279;28;20517;-70
2023/03/31 04:21:25;;;;;;;29.50;26.15;;;29.80;99.90;;;;;;5005705;28;20049;-68
2023/03/31 04:26:41;;;;;;;24.00;21.48;;;30.00;99.90;;;;;;5004694;28;20065;-70
2023/03/31 04:29:13;;;;;;;25.63;22.95;;;30.10;99.90;;;;;;5004572;28;20031;-68
2023/03/31 04:31:42;;;;;;;23.20;17.10;;;30.10;99.90;;;;;;5003343;28;20116;-71
2023/03/31 04:34:13;;;;;;;19.88;15.70;;;30.10;99.90;;;;;;5003592;28;20403;-72
2023/03/31 04:36:41;;;;;;;19.40;16.13;;;30.20;99.90;;;;;;5004682;28;20267;-68
2023/03/31 04:39:10;;;;;;;17.25;15.45;;;30.30;99.90;;;;;;5004457;28;20025;-68
2023/03/31 04:41:36;;;;;;;18.20;16.13;;;30.30;99.90;;;;;;5002802;28;20018;-69
2023/03/31 04:44:03;;;;;;;12.57;11.10;;;30.30;99.90;;;;;;5004328;28;20018;-69
2023/03/31 04:46:30;;;;;;;11.00;9.85;;;30.30;99.90;;;;;;5004492;28;20050;-68
2023/03/31 04:48:58;;;;;;;11.30;9.63;;;30.40;99.90;;;;;;5002850;28;20018;-68
2023/03/31 04:51:24;;;;;;;13.48;9.68;;;30.40;99.90;;;;;;5004201;28;20046;-68
2023/03/31 04:53:51;;;;;;;12.15;9.13;;;30.40;99.90;;;;;;5004893;28;20097;-67
2023/03/31 04:56:17;;;;;;;13.32;10.02;;;30.40;99.90;;;;;;5014202;28;20025;-67
2023/03/31 04:58:44;;;;;;;15.60;9.68;;;30.50;99.90;;;;;;5004079;28;20596;-66
2023/03/31 05:01:16;;;;;;;12.75;8.85;;;30.50;99.90;;;;;;5001989;28;20038;-67
2023/03/31 05:03:44;;;;;;;11.55;9.23;;;30.60;99.90;;;;;;5003799;28;20455;-67
2023/03/31 05:06:11;;;;;;;11.80;8.70;;;30.60;99.90;;;;;;5003281;28;20358;-67
2023/03/31 05:08:37;;;;;;;10.63;8.10;;;30.60;99.90;;;;;;5004734;28;20490;-68
2023/03/31 05:11:05;;;;;;;11.88;8.57;;;30.70;99.90;;;;;;5003411;28;20472;-70
2023/03/31 05:13:31;;;;;;;11.93;9.30;;;30.70;99.90;;;;;;5003237;28;20064;-67
2023/03/31 05:15:58;;;;;;;12.05;8.32;;;30.80;99.90;;;;;;5004773;28;20022;-68
2023/03/31 05:18:24;;;;;;;11.30;8.93;;;30.80;99.90;;;;;;5006699;28;20045;-68
2023/03/31 05:20:51;;;;;;;10.88;9.27;;;30.90;99.90;;;;;;5007282;28;20026;-68
2023/03/31 05:23:18;;;;;;;10.00;8.85;;;30.90;99.90;;;;;;5003982;28;20502;-68
2023/03/31 05:25:44;;;;;;;9.75;8.15;;;31.00;99.90;;;;;;5002722;28;20141;-67
2023/03/31 05:28:11;;;;;;;11.15;8.55;;;31.20;99.90;;;;;;5002313;28;20048;-68
2023/03/31 05:30:37;;;;;;;11.52;8.02;;;31.20;99.90;;;;;;5004182;28;20049;-68
2023/03/31 05:33:04;;;;;;;13.13;8.73;;;31.20;99.90;;;;;;5002872;28;20070;-68
2023/03/31 05:35:30;;;;;;;11.60;8.90;;;31.20;99.90;;;;;;5002078;28;20029;-67
2023/03/31 05:37:57;;;;;;;11.75;8.18;;;31.20;99.90;;;;;;5003945;28;20058;-68
2023/03/31 05:40:23;;;;;;;17.67;8.73;;;31.20;99.90;;;;;;5002458;28;20031;-68
2023/03/31 05:42:50;;;;;;;14.80;9.27;;;31.20;99.90;;;;;;5002192;28;20029;-68
2023/03/31 05:45:17;;;;;;;9.38;7.78;;;31.20;99.90;;;;;;5003792;28;20018;-68
2023/03/31 05:47:43;;;;;;;8.95;7.57;;;31.20;99.90;;;;;;5002560;28;20025;-68
2023/03/31 05:50:10;;;;;;;7.97;7.10;;;31.20;99.90;;;;;;5005974;28;20033;-67
2023/03/31 05:52:36;;;;;;;10.90;7.90;;;31.20;99.90;;;;;;5005131;28;20424;-68
2023/03/31 05:55:04;;;;;;;11.23;7.72;;;31.20;99.90;;;;;;5004595;28;20030;-68
2023/03/31 05:57:31;;;;;;;8.57;7.53;;;31.30;99.90;;;;;;5013119;28;20040;-68
2023/03/31 05:59:57;;;;;;;12.43;8.48;;;31.30;99.90;;;;;;5013402;28;20014;-67
2023/03/31 06:02:24;;;;;;;8.20;7.40;;;31.30;99.90;;;;;;5013588;28;20029;-67
2023/03/31 06:04:51;;;;;;;8.88;6.90;;;31.30;99.90;;;;;;5013411;28;20068;-68
2023/03/31 06:07:18;;;;;;;10.18;6.88;;;31.40;99.90;;;;;;5013658;28;20038;-67
2023/03/31 06:09:45;;;;;;;11.82;7.32;;;31.40;99.90;;;;;;5013430;28;20018;-67
2023/03/31 06:12:12;;;;;;;9.25;7.75;;;31.40;99.90;;;;;;5012640;28;20037;-68
2023/03/31 06:14:38;;;;;;;13.50;9.40;;;31.40;99.90;;;;;;5013227;28;20295;-68
2023/03/31 06:17:05;;;;;;;14.25;8.70;;;31.50;99.90;;;;;;5013528;28;20038;-68
2023/03/31 06:19:32;;;;;;;11.60;7.65;;;31.50;99.90;;;;;;5012923;28;20018;-68
2023/03/31 06:21:58;;;;;;;8.55;7.40;;;31.60;99.90;;;;;;5013380;28;20014;-67
2023/03/31 06:24:25;;;;;;;7.90;6.80;;;31.70;99.90;;;;;;5013461;28;20029;-67
2023/03/31 06:26:51;;;;;;;7.55;6.70;;;31.70;99.90;;;;;;5013373;28;20041;-68
2023/03/31 06:29:18;;;;;;;9.82;8.50;;;31.80;99.90;;;;;;5013246;28;20029;-67
2023/03/31 06:31:45;;;;;;;9.82;6.82;;;31.90;99.90;;;;;;5011388;28;20037;-67
2023/03/31 06:34:11;;;;;;;8.50;7.63;;;31.90;99.90;;;;;;5012827;28;20038;-68
2023/03/31 06:36:38;;;;;;;10.48;8.40;;;31.90;99.90;;;;;;5016032;28;20038;-67
2023/03/31 06:39:04;;;;;;;8.95;8.00;;;32.00;99.90;;;;;;5011064;28;20049;-68
2023/03/31 06:41:31;;;;;;;10.32;6.68;;;32.10;99.90;;;;;;5000192;28;20023;-65
2023/03/31 06:43:57;;;;;;;8.95;7.63;;;32.10;99.90;;;;;;5000037;28;20387;-67
2023/03/31 06:46:24;;;;;;;7.82;7.03;;;32.00;99.90;;;;;;5001702;28;20301;-66
2023/03/31 06:48:50;;;;;;;9.10;7.75;;;32.00;99.90;;;;;;5000551;28;20033;-68
2023/03/31 06:51:17;;;;;;;6.97;6.03;;;32.10;99.90;;;;;;4997024;28;20092;-67
2023/03/31 06:53:44;;;;;;;10.93;7.32;;;32.10;99.90;;;;;;4996809;28;20026;-68
2023/03/31 06:56:10;;;;;;;10.00;7.00;;;32.10;99.90;;;;;;4996755;28;20023;-67
2023/03/31 06:58:37;;;;;;;9.27;7.07;;;32.10;99.90;;;;;;4996811;28;20068;-67
2023/03/31 07:01:05;;;;;;;9.55;8.02;;;32.10;99.90;;;;;;4996696;28;20030;-67
2023/03/31 07:03:32;;;;;;;7.75;6.15;;;32.10;99.90;;;;;;4996641;28;20027;-69
2023/03/31 07:05:59;;;;;;;10.88;6.72;;;32.10;99.90;;;;;;5002237;28;20022;-63
2023/03/31 07:08:26;;;;;;;7.18;6.35;;;32.10;99.90;;;;;;5005327;28;20033;-63
2023/03/31 07:10:57;;;;;;;8.32;6.63;;;32.10;99.90;;;;;;5006373;28;20493;-63
2023/03/31 07:13:24;;;;;;;7.72;6.93;;;32.20;99.90;;;;;;5005126;28;20434;-63
2023/03/31 07:15:51;;;;;;;9.13;6.78;;;32.20;99.90;;;;;;5004432;28;20037;-64
2023/03/31 07:18:18;;;;;;;11.07;6.78;;;32.20;99.90;;;;;;5006211;28;20033;-63
2023/03/31 07:20:49;;;;;;;12.63;6.88;;;32.10;99.90;;;;;;5007913;28;20041;-69
2023/03/31 07:23:16;;;;;;;9.60;7.03;;;32.10;99.90;;;;;;5009799;28;20076;-67
2023/03/31 07:25:42;;;;;;;7.68;6.88;;;32.20;99.90;;;;;;5010381;28;20493;-71
2023/03/31 07:28:09;;;;;;;9.73;7.28;;;32.20;99.90;;;;;;5010313;28;20080;-67
2023/03/31 07:30:36;;;;;;;7.70;6.88;;;32.20;99.90;;;;;;5003422;28;20025;-68
2023/03/31 07:33:04;;;;;;;10.18;7.07;;;32.20;99.90;;;;;;5015385;28;20108;-67
2023/03/31 07:35:31;;;;;;;9.80;7.40;;;32.20;99.90;;;;;;5015377;28;20084;-67
2023/03/31 07:37:57;;;;;;;10.00;8.15;;;32.20;99.90;;;;;;5015368;28;20053;-68
2023/03/31 07:40:26;;;;;;;8.55;7.55;;;32.20;99.90;;;;;;5014751;28;20030;-66
2023/03/31 07:42:53;;;;;;;11.15;7.55;;;32.20;99.90;;;;;;5014179;28;20462;-69
2023/03/31 07:45:22;;;;;;;10.10;8.05;;;32.20;99.90;;;;;;5008743;28;20053;-70
2023/03/31 07:47:49;;;;;;;13.05;7.45;;;32.30;99.90;;;;;;5003860;28;20021;-68
2023/03/31 07:50:16;;;;;;;9.93;7.55;;;32.30;99.90;;;;;;5006846;28;20160;-68
2023/03/31 07:52:43;;;;;;;9.45;7.57;;;32.30;99.90;;;;;;5004944;28;20054;-69
2023/03/31 07:55:11;;;;;;;9.05;7.05;;;32.30;99.90;;;;;;5006009;28;20084;-70
2023/03/31 07:57:39;;;;;;;9.30;8.05;;;32.40;99.90;;;;;;5004066;28;20026;-70
2023/03/31 08:00:11;;;;;;;8.43;7.18;;;32.40;99.90;;;;;;5004682;28;20425;-69
2023/03/31 08:02:37;;;;;;;;;;;32.40;99.90;;;;;;5004447;28;20011;-69
2023/03/31 08:05:06;;;;;;;10.40;6.65;;;32.40;99.90;;;;;;5004689;28;20351;-68
2023/03/31 08:07:38;;;;;;;11.25;7.47;;;32.30;99.90;;;;;;5003008;28;20042;-70
2023/03/31 08:10:07;;;;;;;9.60;7.13;;;32.40;99.90;;;;;;4995408;28;20034;-70
2023/03/31 08:12:34;;;;;;;11.00;7.80;;;32.40;99.90;;;;;;4995457;28;20448;-68
2023/03/31 08:15:01;;;;;;;10.57;7.68;;;32.40;99.90;;;;;;5004910;28;20367;-71
2023/03/31 08:17:27;;;;;;;9.07;7.63;;;32.30;99.90;;;;;;4993787;28;20034;-69
2023/03/31 08:19:54;;;;;;;9.23;8.18;;;32.30;99.90;;;;;;4993351;28;20126;-70
2023/03/31 08:22:22;;;;;;;9.10;7.80;;;32.30;99.90;;;;;;4993249;28;20110;-68
2023/03/31 08:24:48;;;;;;;8.52;6.75;;;32.30;99.90;;;;;;4993674;28;20101;-70
2023/03/31 08:27:15;;;;;;;11.93;7.32;;;32.30;99.90;;;;;;4994100;28;20483;-72
2023/03/31 08:29:42;;;;;;;13.00;7.43;;;32.40;99.90;;;;;;4994199;28;20387;-69
2023/03/31 08:32:08;;;;;;;10.73;7.25;;;32.40;99.90;;;;;;4995185;28;20546;-70
2023/03/31 08:34:35;;;;;;;7.80;7.00;;;32.40;99.90;;;;;;4995568;28;20027;-70
2023/03/31 08:37:01;;;;;;;11.65;7.05;;;32.40;99.90;;;;;;4994550;28;20101;-74
2023/03/31 08:39:28;;;;;;;10.05;7.03;;;32.40;99.90;;;;;;4994607;28;20021;-69
2023/03/31 08:42:12;;;;;;;9.77;7.35;;;32.40;99.90;;;;;;4994442;28;20041;-69
2023/03/31 08:45:03;;;;;;;14.38;8.20;;;32.40;99.90;;;;;;5002012;28;20022;-68
2023/03/31 08:47:31;;;;;;;9.27;7.65;;;32.40;99.90;;;;;;4994982;28;20483;-69
2023/03/31 08:50:04;;;;;;;11.13;7.82;;;32.40;99.90;;;;;;5009798;28;20141;-70
2023/03/31 08:52:56;;;;;;;15.52;7.90;;;32.30;99.90;;;;;;5015247;28;20056;-70
2023/03/31 08:55:28;;;;;;;11.02;6.82;;;32.30;99.90;;;;;;5015826;28;20532;-70
2023/03/31 08:58:14;;;;;;;11.93;8.55;;;32.20;99.90;;;;;;5015256;28;20084;-68
2023/03/31 09:01:00;;;;;;;12.00;8.38;;;32.20;99.90;;;;;;5014256;28;20080;-67
2023/03/31 09:04:03;;;;;;;11.95;9.23;;;32.20;99.90;;;;;;5014122;28;20021;-68
2023/03/31 09:06:40;;;;;;;15.77;10.02;;;32.20;99.90;;;;;;5014033;28;20029;-67
2023/03/31 09:09:12;;;;;;;13.68;10.65;;;32.20;99.90;;;;;;5013653;28;20042;-67
2023/03/31 09:11:50;;;;;;;15.80;10.57;;;32.10;99.90;;;;;;5013755;28;20022;-68
2023/03/31 09:14:25;;;;;;;18.13;9.55;;;32.20;99.90;;;;;;5013738;28;20033;-68
2023/03/31 09:17:01;;;;;;;15.23;10.02;;;32.20;99.90;;;;;;5006270;28;20029;-71
2023/03/31 09:19:35;;;;;;;10.82;8.93;;;32.20;99.90;;;;;;4994478;28;20070;-66
2023/03/31 09:22:04;;;;;;;17.70;10.17;;;32.20;99.90;;;;;;4994494;28;20387;-68
2023/03/31 09:24:36;;;;;;;21.30;12.05;;;32.20;99.90;;;;;;4993683;28;20053;-68
2023/03/31 09:27:07;;;;;;;20.27;11.70;;;32.20;99.90;;;;;;4994261;28;20035;-68
2023/03/31 09:29:52;;;;;;;11.97;9.03;;;32.20;99.90;;;;;;4994157;28;20443;-68
2023/03/31 09:32:24;;;;;;;15.55;9.77;;;32.10;99.90;;;;;;5004230;28;20306;-68
2023/03/31 09:34:52;;;;;;;;;;;32.10;99.90;;;;;;5004866;28;20488;-68
2023/03/31 09:37:19;;;;;;;10.88;9.10;;;32.00;99.90;;;;;;5002033;28;19910;-68
2023/03/31 09:39:46;;;;;;;11.45;9.07;;;32.00;99.90;;;;;;5003921;28;20033;-68
2023/03/31 09:42:13;;;;;;;18.17;11.35;;;31.90;99.90;;;;;;5004189;28;20456;-67
2023/03/31 09:44:45;;;;;;;13.25;10.55;;;31.90;99.90;;;;;;5008489;28;20560;-68
2023/03/31 09:47:24;;;;;;;13.00;10.10;;;31.90;99.90;;;;;;5011265;28;20033;-69
2023/03/31 09:49:51;;;;;;;17.10;11.18;;;31.90;99.90;;;;;;5002105;28;20037;-73
2023/03/31 09:52:31;;;;;;;13.52;11.05;;;31.90;99.90;;;;;;5004251;28;20080;-69
2023/03/31 09:55:04;;;;;;;21.73;12.60;;;31.80;99.90;;;;;;5002325;28;20027;-68
2023/03/31 09:57:33;;;;;;;15.18;11.65;;;31.90;99.90;;;;;;5002943;28;20148;-70
2023/03/31 10:00:13;;;;;;;14.88;10.18;;;31.90;99.90;;;;;;5004291;28;20497;-69
2023/03/31 10:02:49;;;;;;;19.80;13.25;;;31.80;99.90;;;;;;5004328;28;20731;-71
2023/03/31 10:05:30;;;;;;;22.90;14.40;;;31.70;99.90;;;;;;5004395;28;20023;-70
2023/03/31 10:08:16;;;;;;;18.88;13.95;;;31.70;99.90;;;;;;5001129;28;20085;-70
2023/03/31 10:10:48;;;;;;;13.88;10.52;;;31.70;99.90;;;;;;5003760;28;20030;-69
2023/03/31 10:13:19;;;;;;;11.93;8.67;;;31.70;99.90;;;;;;5007696;28;20030;-70
2023/03/31 10:15:46;;;;;;;11.35;8.82;;;31.70;99.90;;;;;;5007587;28;20260;-70
2023/03/31 10:18:16;;;;;;;13.02;8.63;;;31.70;99.90;;;;;;5022375;28;20072;-69
2023/03/31 10:20:52;;;;;;;11.68;9.00;;;31.70;99.90;;;;;;5011932;28;20473;-69
2023/03/31 10:23:21;;;;;;;12.25;8.70;;;31.70;99.90;;;;;;5007878;28;20117;-70
2023/03/31 10:25:52;;;;;;;10.40;8.27;;;31.70;99.90;;;;;;5007068;28;20097;-71
2023/03/31 10:28:20;;;;;;;12.90;9.70;;;31.70;99.90;;;;;;5006746;28;20057;-70
2023/03/31 10:31:04;;;;;;;22.73;13.18;;;31.70;99.90;;;;;;5007277;28;20029;-70
2023/03/31 10:33:35;;;;;;;20.63;13.48;;;31.70;99.90;;;;;;5007898;28;20026;-69
2023/03/31 10:36:09;;;;;;;16.77;11.45;;;31.70;99.90;;;;;;5005433;28;20026;-69
2023/03/31 10:38:43;;;;;;;18.25;11.88;;;31.60;99.90;;;;;;5004609;28;20034;-70
2023/03/31 10:41:12;;;;;;;22.85;12.05;;;31.60;99.90;;;;;;5004062;28;20026;-68
2023/03/31 10:43:43;;;;;;;18.80;11.70;;;31.60;99.90;;;;;;5007178;28;20460;-68
2023/03/31 10:46:11;;;;;;;19.77;12.68;;;31.60;99.90;;;;;;5020271;28;20029;-68
2023/03/31 10:48:40;;;;;;;18.83;12.93;;;31.60;99.90;;;;;;5005819;28;20058;-68
2023/03/31 10:51:17;;;;;;;18.30;12.00;;;31.60;99.90;;;;;;5005406;28;20088;-69
2023/03/31 10:53:46;;;;;;;19.60;12.38;;;31.50;99.90;;;;;;5004416;28;20022;-68
2023/03/31 10:56:18;;;;;;;23.70;13.50;;;31.50;99.90;;;;;;5004153;28;20026;-69
2023/03/31 10:58:55;;;;;;;23.77;14.05;;;31.50;99.90;;;;;;5012067;28;20022;-69
2023/03/31 11:01:21;;;;;;;23.38;14.48;;;31.40;99.90;;;;;;5006006;28;20034;-68
2023/03/31 11:03:54;;;;;;;25.15;17.92;;;31.30;99.90;;;;;;5006042;28;20104;-68
2023/03/31 11:06:32;;;;;;;25.85;15.68;;;31.30;99.90;;;;;;5006266;28;21399;-68
2023/03/31 11:09:07;;;;;;;24.85;15.57;;;31.30;99.90;;;;;;5005381;28;20052;-68
2023/03/31 11:11:34;;;;;;;20.08;14.75;;;31.20;99.90;;;;;;5009759;28;20034;-69
2023/03/31 11:14:19;;;;;;;49.00;34.70;;;31.10;99.90;;;;;;5015380;28;20040;-69
2023/03/31 11:16:55;;;;;;;35.53;25.02;;;31.10;99.90;;;;;;5014969;28;20030;-69
2023/03/31 11:19:28;;;;;;;81.18;54.53;;;31.10;99.90;;;;;;5013985;28;20026;-67
2023/03/31 11:22:25;;;;;;;62.08;46.50;;;31.20;99.90;;;;;;5009437;28;20044;-67
2023/03/31 11:24:51;;;;;;;40.10;29.58;;;31.10;99.90;;;;;;5004418;28;20021;-69
2023/03/31 11:27:38;;;;;;;31.55;24.60;;;31.00;99.90;;;;;;5004302;28;20549;-71
2023/03/31 11:30:17;;;;;;;18.50;13.00;;;31.00;99.90;;;;;;4999133;28;20146;-66
2023/03/31 11:32:46;;;;;;;59.13;43.47;;;30.90;99.90;;;;;;5004544;28;20018;-70
2023/03/31 11:35:24;;;;;;;25.50;19.77;;;30.80;99.90;;;;;;5005479;28;20022;-66
2023/03/31 11:49:24;;;;;;;69.80;51.83;;;30.90;99.90;;;;;;5049365;28;20412;-66
2023/03/31 11:51:56;;;;;;;32.80;22.13;;;31.30;99.90;;;;;;5053180;28;20021;-68
2023/03/31 11:55:03;;;;;;;46.85;30.17;;;31.20;99.90;;;;;;5058375;27;20508;-66
2023/03/31 11:57:35;;;;;;;71.03;52.13;;;31.10;99.90;;;;;;5047860;28;20461;-68
2023/03/31 12:00:26;;;;;;;30.65;20.27;;;31.00;99.90;;;;;;5052737;28;20025;-70
2023/03/31 12:03:02;;;;;;;24.85;18.35;;;30.80;99.90;;;;;;5026253;28;20378;-70
2023/03/31 12:05:32;;;;;;;27.35;18.45;;;30.70;99.90;;;;;;5055504;28;20025;-68
2023/03/31 12:08:07;;;;;;;27.50;18.35;;;30.70;99.90;;;;;;5051289;28;20074;-69
2023/03/31 12:10:40;;;;;;;27.00;18.92;;;30.70;99.90;;;;;;5053259;28;20064;-68
2023/03/31 12:13:28;;;;;;;55.22;43.47;;;30.70;99.90;;;;;;5052120;28;20116;-70
2023/03/31 12:16:05;;;;;;;91.75;64.72;;;30.60;99.90;;;;;;5053726;28;20597;-69
2023/03/31 12:18:49;;;;;;;103.18;63.20;;;30.70;99.90;;;;;;5050488;28;20028;-68
2023/03/31 12:21:16;;;;;;;35.30;22.45;;;30.60;99.90;;;;;;5056125;28;20019;-68
2023/03/31 12:23:44;;;;;;;34.15;20.98;;;30.60;99.90;;;;;;5055490;28;20014;-69
2023/03/31 12:26:21;;;;;;;28.95;21.13;;;30.50;99.90;;;;;;5050891;28;20047;-69
2023/03/31 12:28:51;;;;;;;28.80;20.02;;;30.40;99.90;;;;;;5056549;28;20017;-66
2023/03/31 12:31:22;;;;;;;29.25;20.20;;;30.40;99.90;;;;;;5054245;28;20033;-67
2023/03/31 12:33:58;;;;;;;30.08;20.83;;;30.40;99.90;;;;;;5049400;28;20548;-69
2023/03/31 12:36:25;;;;;;;25.60;20.35;;;30.40;99.90;;;;;;5056153;28;20108;-68
2023/03/31 12:39:02;;;;;;;29.95;21.73;;;30.30;99.90;;;;;;5043231;28;20077;-68
2023/03/31 12:42:09;;;;;;;27.98;19.27;;;30.20;99.90;;;;;;5035441;28;20021;-71
2023/03/31 12:44:42;;;;;;;29.50;21.35;;;30.20;99.90;;;;;;5036244;28;20029;-71
2023/03/31 12:47:11;;;;;;;29.77;18.15;;;30.10;99.90;;;;;;5035011;28;20115;-71
2023/03/31 12:49:46;;;;;;;27.77;19.23;;;30.10;99.90;;;;;;5025228;28;20500;-68
2023/03/31 12:52:23;;;;;;;28.77;19.63;;;30.00;99.90;;;;;;5023300;28;20021;-67
2023/03/31 12:55:28;;;;;;;32.03;20.98;;;30.00;99.90;;;;;;5018834;28;20034;-69
2023/03/31 12:58:25;;;;;;;30.73;20.10;;;30.00;99.90;;;;;;5024637;28;20065;-68
2023/03/31 13:01:05;;;;;;;36.70;22.58;;;30.00;99.90;;;;;;5019779;28;20030;-70
2023/03/31 13:03:34;;;;;;;54.38;40.50;;;30.00;99.90;;;;;;5021017;28;20100;-69
2023/03/31 13:06:02;;;;;;;43.83;31.20;;;30.00;99.90;;;;;;5021180;28;20018;-68
2023/03/31 13:08:49;;;;;;;39.38;24.83;;;30.00;99.90;;;;;;5021210;28;20435;-69
2023/03/31 13:11:17;;;;;;;118.32;89.47;;;30.00;99.90;;;;;;5016232;28;20526;-70
2023/03/31 13:14:03;;;;;;;36.55;25.02;;;30.00;99.90;;;;;;5016338;28;20029;-69